createdAt,value
2018-04-07T00:02:09.770Z,2.00
2018-04-07T00:04:37.229Z,1.93
2018-04-07T00:07:05.465Z,1.87
2018-04-07T00:09:32.929Z,1.90
2018-04-07T00:12:00.393Z,2.03
2018-04-07T00:14:27.852Z,2.00
2018-04-07T00:16:55.319Z,1.70
2018-04-07T00:19:22.775Z,1.80
2018-04-07T00:21:50.236Z,2.00
2018-04-07T00:24:17.704Z,1.90
2018-04-07T00:26:45.935Z,2.00
2018-04-07T00:29:13.400Z,2.03
2018-04-07T00:31:40.870Z,1.80
2018-04-07T00:34:08.331Z,1.70
2018-04-07T00:36:35.812Z,1.87
2018-04-07T00:39:04.047Z,1.73
2018-04-07T00:41:31.521Z,1.90
2018-04-07T00:43:58.988Z,2.27
2018-04-07T00:46:26.451Z,1.40
2018-04-07T00:48:54.683Z,1.60
2018-04-07T00:51:22.249Z,1.97
2018-04-07T00:53:49.717Z,1.77
2018-04-07T00:56:17.199Z,1.70
2018-04-07T00:58:44.664Z,1.93
2018-04-07T01:01:12.895Z,1.77
2018-04-07T01:03:40.354Z,1.70
2018-04-07T01:06:07.815Z,1.90
2018-04-07T01:08:35.280Z,2.00
2018-04-07T01:11:02.740Z,1.93
2018-04-07T01:13:30.354Z,1.83
2018-04-07T01:15:57.817Z,1.90
2018-04-07T01:18:25.285Z,1.80
2018-04-07T01:20:53.003Z,1.97
2018-04-07T01:23:21.232Z,1.40
2018-04-07T01:25:48.705Z,1.70
2018-04-07T01:28:16.167Z,1.90
2018-04-07T01:30:43.643Z,2.00
2018-04-07T01:33:11.117Z,2.47
2018-04-07T01:35:39.350Z,2.20
2018-04-07T01:38:06.820Z,2.07
2018-04-07T01:40:34.281Z,1.93
2018-04-07T01:43:01.760Z,1.70
2018-04-07T01:45:29.998Z,1.83
2018-04-07T01:47:57.466Z,1.63
2018-04-07T01:50:24.923Z,2.10
2018-04-07T01:52:52.390Z,2.00
2018-04-07T01:55:19.883Z,1.57
2018-04-07T01:57:47.362Z,1.93
2018-04-07T02:00:14.852Z,2.20
2018-04-07T02:02:42.321Z,2.33
2018-04-07T02:05:10.585Z,1.87
2018-04-07T02:07:38.046Z,2.00
2018-04-07T02:10:05.511Z,1.67
2018-04-07T02:12:32.972Z,1.50
2018-04-07T02:15:01.199Z,1.70
2018-04-07T02:17:28.666Z,1.77
2018-04-07T02:19:56.147Z,1.57
2018-04-07T02:22:23.624Z,1.90
2018-04-07T02:24:51.868Z,1.70
2018-04-07T02:27:19.507Z,1.90
2018-04-07T02:29:47.053Z,2.60
2018-04-07T02:32:14.605Z,1.47
2018-04-07T02:34:42.137Z,2.23
2018-04-07T02:37:10.474Z,2.03
2018-04-07T02:39:38.011Z,2.07
2018-04-07T02:42:05.551Z,1.80
2018-04-07T02:44:33.064Z,1.53
2018-04-07T02:47:00.631Z,1.60
2018-04-07T02:49:28.150Z,1.70
2018-04-07T02:51:55.662Z,1.70
2018-04-07T02:54:24.040Z,1.90
2018-04-07T02:56:51.526Z,2.10
2018-04-07T02:59:19.030Z,1.80
2018-04-07T03:01:46.581Z,1.60
2018-04-07T03:04:14.069Z,1.97
2018-04-07T03:06:41.604Z,1.93
2018-04-07T03:09:09.112Z,1.80
2018-04-07T03:11:37.363Z,1.97
2018-04-07T03:14:05.735Z,1.87
2018-04-07T03:16:33.251Z,2.40
2018-04-07T03:19:00.901Z,1.60
2018-04-07T03:21:28.363Z,1.90
2018-04-07T03:23:55.825Z,1.90
2018-04-07T03:26:23.290Z,1.90
2018-04-07T03:28:50.754Z,1.73
2018-04-07T03:31:18.241Z,1.87
2018-04-07T03:33:45.708Z,1.70
2018-04-07T03:36:13.939Z,1.87
2018-04-07T03:38:41.676Z,1.90
2018-04-07T03:41:09.148Z,1.80
2018-04-07T03:43:36.616Z,1.60
2018-04-07T03:46:04.093Z,2.00
2018-04-07T03:48:31.564Z,2.00
2018-04-07T03:50:59.127Z,2.20
2018-04-07T03:53:27.360Z,2.23
2018-04-07T03:55:54.828Z,1.90
2018-04-07T03:58:22.325Z,2.07
2018-04-07T04:00:50.558Z,2.03
2018-04-07T04:03:18.038Z,2.00
2018-04-07T04:05:45.511Z,2.13
2018-04-07T04:08:13.762Z,2.00
2018-04-07T04:10:41.214Z,1.80
2018-04-07T04:13:08.677Z,2.50
2018-04-07T04:15:36.145Z,2.00
2018-04-07T04:18:03.612Z,1.67
2018-04-07T04:20:31.086Z,2.03
2018-04-07T04:22:58.556Z,2.00
2018-04-07T04:25:26.024Z,1.87
2018-04-07T04:27:53.492Z,1.80
2018-04-07T04:30:20.957Z,2.07
2018-04-07T04:32:48.416Z,2.37
2018-04-07T04:35:15.876Z,2.10
2018-04-07T04:37:43.352Z,2.13
2018-04-07T04:40:10.825Z,2.03
2018-04-07T04:42:38.288Z,2.03
2018-04-07T04:45:06.757Z,2.47
2018-04-07T04:47:34.213Z,2.30
2018-04-07T04:50:01.677Z,1.97
2018-04-07T04:52:29.912Z,1.90
2018-04-07T04:54:57.381Z,1.73
2018-04-07T04:57:24.848Z,1.90
2018-04-07T04:59:52.324Z,2.27
2018-04-07T05:02:19.780Z,1.93
2018-04-07T05:04:48.027Z,2.13
2018-04-07T05:07:15.477Z,2.27
2018-04-07T05:09:42.997Z,2.20
2018-04-07T05:12:10.633Z,2.50
2018-04-07T05:14:38.102Z,2.53
2018-04-07T05:17:06.325Z,2.50
2018-04-07T05:19:33.788Z,2.37
2018-04-07T05:22:01.248Z,2.40
2018-04-07T05:24:28.959Z,2.17
2018-04-07T05:26:56.426Z,2.30
2018-04-07T05:29:23.913Z,2.53
2018-04-07T05:31:51.375Z,1.90
2018-04-07T05:34:18.850Z,2.00
2018-04-07T05:36:47.161Z,2.17
2018-04-07T05:39:15.391Z,2.30
2018-04-07T05:41:43.400Z,2.70
2018-04-07T05:44:11.637Z,2.70
2018-04-07T05:46:39.099Z,2.43
2018-04-07T05:49:06.562Z,2.87
2018-04-07T05:51:34.028Z,2.83
2018-04-07T05:54:01.497Z,2.60
2018-04-07T05:56:28.962Z,2.50
2018-04-07T05:58:57.190Z,2.73
2018-04-07T06:01:24.656Z,2.90
2018-04-07T06:03:57.704Z,2.67
2018-04-07T06:06:25.170Z,3.13
2018-04-07T06:08:52.700Z,2.70
2018-04-07T06:11:20.918Z,3.17
2018-04-07T06:13:48.661Z,2.77
2018-04-07T06:16:16.128Z,3.03
2018-04-07T06:18:43.599Z,3.23
2018-04-07T06:21:11.072Z,3.17
2018-04-07T06:23:38.545Z,3.50
2018-04-07T06:26:06.036Z,3.27
2018-04-07T06:28:34.258Z,3.30
2018-04-07T06:31:01.724Z,3.00
2018-04-07T06:33:29.206Z,2.93
2018-04-07T06:35:58.275Z,3.30
2018-04-07T06:38:25.748Z,2.97
2018-04-07T06:40:53.208Z,2.97
2018-04-07T06:43:20.732Z,3.00
2018-04-07T06:45:48.212Z,3.30
2018-04-07T06:48:15.730Z,3.60
2018-04-07T06:50:43.961Z,3.10
2018-04-07T06:53:12.222Z,2.80
2018-04-07T06:55:39.720Z,2.60
2018-04-07T06:58:07.184Z,2.93
2018-04-07T07:00:34.722Z,3.13
2018-04-07T07:03:02.141Z,3.00
2018-04-07T07:05:29.606Z,2.97
2018-04-07T07:07:57.075Z,3.27
2018-04-07T07:10:24.551Z,3.77
2018-04-07T07:12:52.773Z,3.23
2018-04-07T07:15:20.235Z,2.90
2018-04-07T07:17:47.705Z,3.07
2018-04-07T07:20:15.164Z,3.20
2018-04-07T07:22:42.624Z,3.17
2018-04-07T07:25:10.094Z,3.00
2018-04-07T07:27:37.565Z,3.10
2018-04-07T07:30:05.797Z,2.77
2018-04-07T07:32:33.268Z,3.00
2018-04-07T07:35:00.733Z,3.67
2018-04-07T07:37:28.203Z,3.03
2018-04-07T07:39:56.444Z,2.90
2018-04-07T07:42:23.913Z,3.70
2018-04-07T07:44:51.385Z,3.67
2018-04-07T07:47:18.839Z,2.90
2018-04-07T07:49:46.307Z,3.30
2018-04-07T07:52:14.534Z,3.10
2018-04-07T07:54:41.995Z,3.87
2018-04-07T07:57:09.462Z,3.63
2018-04-07T07:59:36.941Z,3.10
2018-04-07T08:02:04.426Z,3.10
2018-04-07T08:04:31.907Z,3.67
2018-04-07T08:06:59.372Z,3.43
2018-04-07T08:09:26.834Z,3.23
2018-04-07T08:11:54.432Z,3.73
2018-04-07T08:14:21.912Z,4.07
2018-04-07T08:16:49.392Z,3.37
2018-04-07T08:19:16.865Z,3.57
2018-04-07T08:21:44.341Z,3.40
2018-04-07T08:24:11.807Z,3.87
2018-04-07T08:26:39.281Z,3.40
2018-04-07T08:29:06.748Z,3.57
2018-04-07T08:31:34.998Z,2.87
2018-04-07T08:34:02.447Z,3.70
2018-04-07T08:36:29.921Z,3.70
2018-04-07T08:38:57.408Z,4.00
2018-04-07T08:41:24.889Z,4.00
2018-04-07T08:43:52.368Z,4.07
2018-04-07T08:46:19.831Z,4.20
2018-04-07T08:48:47.303Z,3.70
2018-04-07T08:51:14.779Z,3.80
2018-04-07T08:53:43.019Z,4.13
2018-04-07T08:56:10.500Z,4.13
2018-04-07T08:58:39.578Z,4.20
2018-04-07T09:01:07.033Z,3.93
2018-04-07T09:03:34.631Z,4.00
2018-04-07T09:06:02.875Z,4.40
2018-04-07T09:08:30.339Z,3.80
2018-04-07T09:10:57.805Z,4.20
2018-04-07T09:13:25.378Z,4.60
2018-04-07T09:15:53.621Z,4.40
2018-04-07T09:18:21.086Z,4.30
2018-04-07T09:20:48.574Z,4.30
2018-04-07T09:23:16.289Z,4.27
2018-04-07T09:25:43.964Z,4.17
2018-04-07T09:28:12.226Z,4.33
2018-04-07T09:30:39.844Z,4.43
2018-04-07T09:33:07.316Z,4.30
2018-04-07T09:35:34.793Z,4.27
2018-04-07T09:38:02.269Z,4.47
2018-04-07T09:40:29.739Z,4.57
2018-04-07T09:42:57.207Z,4.10
2018-04-07T09:45:25.692Z,4.67
2018-04-07T09:47:53.940Z,4.67
2018-04-07T09:50:21.412Z,4.50
2018-04-07T09:52:48.879Z,4.60
2018-04-07T09:55:19.157Z,4.33
2018-04-07T09:57:46.620Z,4.73
2018-04-07T10:00:14.097Z,4.13
2018-04-07T10:02:41.623Z,4.40
2018-04-07T10:05:09.084Z,4.60
2018-04-07T10:07:36.583Z,4.50
2018-04-07T10:10:04.084Z,4.40
2018-04-07T10:12:31.558Z,4.90
2018-04-07T10:14:59.028Z,4.43
2018-04-07T10:17:26.496Z,4.40
2018-04-07T10:19:53.961Z,4.73
2018-04-07T10:22:21.431Z,4.60
2018-04-07T10:24:49.667Z,5.23
2018-04-07T10:27:19.147Z,4.23
2018-04-07T10:29:46.635Z,4.63
2018-04-07T10:32:14.224Z,5.10
2018-04-07T10:34:41.675Z,4.70
2018-04-07T10:37:09.364Z,4.70
2018-04-07T10:39:36.836Z,4.93
2018-04-07T10:42:04.290Z,4.57
2018-04-07T10:44:31.757Z,4.77
2018-04-07T10:46:59.232Z,4.83
2018-04-07T10:49:26.701Z,5.80
2018-04-07T10:51:54.192Z,5.33
2018-04-07T10:54:22.420Z,5.03
2018-04-07T10:56:49.896Z,4.87
2018-04-07T10:59:17.380Z,5.23
2018-04-07T11:01:45.616Z,5.03
2018-04-07T11:04:13.093Z,5.47
2018-04-07T11:06:40.577Z,4.80
2018-04-07T11:09:08.808Z,5.20
2018-04-07T11:11:36.282Z,5.30
2018-04-07T11:14:03.765Z,5.10
2018-04-07T11:16:32.013Z,4.80
2018-04-07T11:18:59.490Z,4.90
2018-04-07T11:21:27.737Z,5.10
2018-04-07T11:23:55.211Z,4.97
2018-04-07T11:26:22.682Z,5.10
2018-04-07T11:28:50.910Z,4.80
2018-04-07T11:31:18.378Z,4.70
2018-04-07T11:33:45.869Z,5.17
2018-04-07T11:36:13.344Z,4.57
2018-04-07T11:38:40.840Z,4.80
2018-04-07T11:41:08.309Z,4.87
2018-04-07T11:43:35.894Z,4.83
2018-04-07T11:46:03.364Z,5.00
2018-04-07T11:48:31.624Z,5.23
2018-04-07T11:50:59.098Z,4.97
2018-04-07T11:53:27.326Z,4.53
2018-04-07T11:55:54.796Z,5.10
2018-04-07T11:58:22.280Z,5.07
2018-04-07T12:00:50.525Z,5.03
2018-04-07T12:03:18.020Z,5.37
2018-04-07T12:05:46.263Z,4.63
2018-04-07T12:08:13.750Z,5.60
2018-04-07T12:10:41.988Z,5.20
2018-04-07T12:13:09.468Z,5.70
2018-04-07T12:15:50.237Z,6.07
2018-04-07T12:18:17.751Z,6.17
2018-04-07T12:20:45.233Z,6.53
2018-04-07T12:23:12.894Z,5.20
2018-04-07T12:25:40.364Z,5.17
2018-04-07T12:28:07.832Z,5.30
2018-04-07T12:30:35.304Z,5.70
2018-04-07T12:33:03.556Z,5.60
2018-04-07T12:35:31.028Z,6.03
2018-04-07T12:37:59.265Z,6.03
2018-04-07T12:40:26.753Z,5.33
2018-04-07T12:42:54.232Z,5.57
2018-04-07T12:48:37.922Z,6.43
2018-04-07T12:51:26.352Z,8.53
2018-04-07T12:53:58.577Z,6.10
2018-04-07T12:56:37.534Z,5.37
2018-04-07T13:07:54.816Z,4.70
2018-04-07T13:10:23.094Z,5.10
2018-04-07T13:21:33.627Z,6.00
2018-04-07T13:24:07.887Z,5.60
2018-04-07T13:26:37.404Z,5.77
2018-04-07T13:29:05.045Z,5.33
2018-04-07T13:31:33.419Z,6.23
2018-04-07T13:34:01.130Z,5.77
2018-04-07T13:36:32.884Z,5.50
2018-04-07T13:39:02.737Z,7.97
2018-04-07T13:44:09.098Z,6.20
2018-04-07T13:46:36.680Z,5.20
2018-04-07T13:49:04.567Z,6.13
2018-04-07T13:54:39.693Z,5.63
2018-04-07T13:57:10.562Z,6.13
2018-04-07T13:59:38.171Z,6.13
2018-04-07T14:02:06.894Z,6.43
2018-04-07T14:04:34.442Z,5.87
2018-04-07T14:07:01.989Z,5.93
2018-04-07T14:09:29.514Z,6.27
2018-04-07T14:11:58.060Z,6.20
2018-04-07T14:14:25.594Z,6.03
2018-04-07T14:16:53.136Z,6.33
2018-04-07T14:19:20.699Z,6.27
2018-04-07T14:21:48.554Z,7.93
2018-04-07T14:24:19.096Z,6.30
2018-04-07T14:26:47.609Z,5.50
2018-04-07T14:29:19.484Z,5.83
2018-04-07T14:31:48.075Z,6.10
2018-04-07T14:34:15.978Z,5.47
2018-04-07T14:36:43.594Z,5.57
2018-04-07T14:39:11.299Z,5.83
2018-04-07T14:41:40.892Z,5.80
2018-04-07T14:44:09.318Z,5.63
2018-04-07T14:46:37.749Z,6.20
2018-04-07T14:49:06.050Z,5.90
2018-04-07T14:51:34.613Z,6.30
2018-04-07T14:54:02.227Z,5.63
2018-04-07T14:56:29.819Z,6.23
2018-04-07T14:58:58.340Z,6.27
2018-04-07T15:01:26.871Z,6.33
2018-04-07T15:03:54.484Z,6.03
2018-04-07T15:06:22.392Z,5.53
2018-04-07T15:08:49.956Z,6.00
2018-04-07T15:11:18.780Z,6.27
2018-04-07T15:13:59.119Z,5.80
2018-04-07T15:16:27.846Z,5.73
2018-04-07T15:18:55.773Z,5.53
2018-04-07T15:36:01.540Z,6.33
2018-04-07T15:38:30.051Z,6.53
2018-04-07T15:40:58.447Z,6.93
2018-04-07T15:43:26.092Z,5.87
2018-04-07T15:45:54.191Z,5.87
2018-04-07T15:48:21.815Z,5.90
2018-04-07T15:50:52.445Z,5.83
2018-04-07T15:53:21.765Z,5.87
2018-04-07T15:55:52.318Z,6.13
2018-04-07T15:58:20.453Z,5.87
2018-04-07T16:00:49.080Z,5.17
2018-04-07T16:03:17.814Z,4.83
2018-04-07T16:05:47.828Z,6.20
2018-04-07T16:08:15.549Z,6.67
2018-04-07T16:10:43.093Z,5.20
2018-04-07T16:13:10.764Z,5.40
2018-04-07T16:15:38.356Z,5.17
2018-04-07T16:18:06.057Z,5.80
2018-04-07T16:20:33.685Z,6.00
2018-04-07T16:23:01.369Z,5.13
2018-04-07T16:25:28.980Z,4.90
2018-04-07T16:27:56.565Z,5.60
2018-04-07T16:30:24.128Z,6.17
2018-04-07T16:32:55.326Z,6.37
2018-04-07T16:35:22.943Z,5.90
2018-04-07T16:37:51.408Z,5.77
2018-04-07T16:40:22.567Z,9.23
2018-04-07T16:42:54.251Z,7.63
2018-04-07T16:45:21.842Z,5.67
2018-04-07T16:47:49.376Z,5.30
2018-04-07T16:50:17.024Z,5.60
2018-04-07T16:52:47.754Z,5.77
2018-04-07T16:55:19.463Z,5.00
2018-04-07T17:00:27.924Z,4.70
2018-04-07T17:02:57.516Z,4.57
2018-04-07T17:05:25.396Z,5.07
2018-04-07T17:07:55.557Z,4.90
2018-04-07T17:10:28.436Z,5.30
2018-04-07T17:12:56.015Z,5.63
2018-04-07T17:18:39.162Z,25.77
2018-04-07T17:21:19.262Z,30.67
2018-04-07T17:23:52.341Z,17.73
2018-04-07T17:26:19.969Z,14.40
2018-04-07T17:28:51.088Z,10.40
2018-04-07T17:31:27.192Z,8.20
2018-04-07T17:39:50.605Z,5.77
2018-04-07T17:51:04.203Z,33.03
2018-04-07T18:02:37.803Z,16.80
2018-04-07T18:07:59.439Z,9.03
2018-04-07T18:10:30.371Z,5.73
2018-04-07T18:15:37.441Z,5.77
2018-04-07T18:24:13.603Z,4.80
2018-04-07T18:29:56.611Z,4.63
2018-04-07T18:38:23.094Z,5.50
2018-04-07T18:43:37.712Z,5.70
2018-04-07T18:57:56.433Z,6.90
2018-04-07T19:15:31.464Z,8.60
2018-04-07T19:18:18.758Z,8.83
2018-04-07T19:20:46.447Z,9.07
2018-04-07T19:23:18.382Z,8.30
2018-04-07T19:25:46.906Z,8.20
2018-04-07T19:28:15.405Z,8.00
2018-04-07T19:30:57.345Z,7.80
2018-04-07T19:33:30.006Z,7.73
2018-04-07T19:45:05.722Z,8.00
2018-04-07T19:50:15.379Z,7.50
2018-04-07T19:52:58.922Z,6.97
2018-04-07T20:36:26.584Z,6.17
2018-04-07T20:38:58.482Z,6.80
2018-04-07T20:44:32.112Z,6.27
2018-04-07T20:46:59.600Z,6.80
2018-04-07T20:52:43.397Z,6.70
2018-04-07T20:55:11.032Z,6.83
2018-04-07T21:14:25.746Z,5.47
2018-04-07T21:16:54.133Z,6.10
2018-04-07T21:19:31.214Z,6.53
2018-04-07T21:21:59.936Z,5.73
2018-04-07T21:29:38.077Z,6.60
2018-04-07T21:32:05.896Z,7.17
2018-04-07T21:34:37.435Z,7.37
2018-04-07T21:37:05.074Z,8.00
2018-04-07T21:39:37.108Z,8.33
2018-04-07T21:42:09.247Z,8.40
2018-04-07T21:47:26.540Z,8.50
2018-04-07T21:58:27.571Z,8.73
2018-04-07T22:00:57.592Z,8.93
2018-04-07T22:03:25.200Z,8.13
2018-04-07T22:06:06.826Z,9.20
2018-04-07T22:08:34.396Z,9.33
2018-04-07T22:11:10.050Z,8.90
2018-04-07T22:16:14.086Z,9.40
2018-04-07T22:18:48.842Z,9.07
2018-04-07T22:21:22.110Z,9.70
2018-04-07T22:23:51.099Z,8.77
2018-04-07T22:26:20.886Z,9.77
2018-04-07T22:28:51.187Z,8.70
2018-04-07T22:31:21.072Z,8.83
2018-04-07T22:33:58.438Z,8.90
2018-04-07T22:36:26.003Z,9.30
2018-04-07T22:38:55.330Z,9.10
2018-04-07T22:41:22.932Z,9.70
2018-04-07T22:43:50.602Z,9.20
2018-04-07T22:46:18.217Z,9.43
2018-04-07T22:48:45.834Z,9.20
2018-04-07T22:51:14.774Z,9.77
2018-04-07T22:53:46.266Z,9.33
2018-04-07T22:56:17.457Z,8.97
2018-04-07T23:01:27.561Z,9.00
2018-04-07T23:06:29.029Z,9.07
2018-04-07T23:08:56.805Z,8.80
2018-04-07T23:11:27.539Z,9.77
2018-04-07T23:14:06.803Z,9.53
2018-04-07T23:16:36.120Z,9.10
2018-04-07T23:19:08.763Z,8.37
2018-04-07T23:21:36.420Z,9.13
2018-04-07T23:24:08.021Z,8.83
2018-04-07T23:26:36.503Z,9.80
2018-04-07T23:29:05.966Z,9.30
2018-04-07T23:34:05.765Z,9.50
2018-04-07T23:36:34.073Z,8.80
2018-04-07T23:39:03.482Z,9.10
2018-04-07T23:41:31.883Z,9.07
2018-04-07T23:43:59.364Z,8.90
2018-04-07T23:46:27.106Z,9.27
2018-04-07T23:49:22.978Z,9.17
2018-04-07T23:51:50.656Z,9.10
2018-04-07T23:54:21.687Z,8.60
2018-04-07T23:56:59.041Z,8.67
2018-04-07T23:59:37.979Z,9.20
